La Porsche — VY9305 — position and weather

sailwx.info

Track history (hours):
 
Tides and Currents Weather Stations Pressure Air Temp Water Temp Dewpoint Dewpoint Depression Visibility Wind Speed Wind Dir Waves Ship Positions

La Porsche

Last reported at 2016-Jul-18 16:04 UTC. Time now 2016-Jul-27 03:47 UTC.
Position N 48°32' W 125°03'.
Warning: this ship's position is 8 days out of date.

Length 22 m; draft 3 m.

Type: Fishing. MMSI: 316001649.

Date/timePositionNaut miles runAvg speedWind from/ knotsBaromVisibWave heightAir tempDewpointWater temp
2016-Jul-18 16:04N 48°32' W 125°03'4 8.0
2016-Jul-18 15:33N 48°33' W 124°57'9 8.9
2016-Jul-18 14:33N 48°31' W 124°43'10 9.6
2016-Jul-18 13:33N 48°29' W 124°29'9 9.3
2016-Jul-18 12:33N 48°26' W 124°16'9 8.8
2016-Jul-18 11:33N 48°22' W 124°04'9 8.3
2016-Jul-18 10:31N 48°19' W 123°52'15 6.5
2016-Jul-18 08:14N 48°17' W 123°30'4 5.8
2016-Jul-18 07:33N 48°21' W 123°28'6 6.0
2016-Jul-18 06:34N 48°25' W 123°23'0 0.1
2016-Jul-18 05:33N 48°25' W 123°23'0 0.0
2016-Jul-18 04:31N 48°25' W 123°23'0 0.0
2016-Jul-18 03:20N 48°25' W 123°23'0 0.0
2016-Jul-18 02:33N 48°25' W 123°23'0 0.0
2016-Jul-18 01:34N 48°25' W 123°23'0 0.0
2016-Jul-18 00:34N 48°25' W 123°23'0 0.0
2016-Jul-17 23:34N 48°25' W 123°23'0 0.0
2016-Jul-17 22:34N 48°25' W 123°23'0 0.0
2016-Jul-17 21:33N 48°25' W 123°23'0 0.0
2016-Jul-17 20:33N 48°25' W 123°23'0 0.0
2016-Jul-17 19:33N 48°25' W 123°23'0 0.0
2016-Jul-17 18:33N 48°25' W 123°23'0 0.0
2016-Jul-17 17:33N 48°25' W 123°23'0 0.0
2016-Jul-17 16:33N 48°25' W 123°23'0 0.0
2016-Jul-17 15:32N 48°25' W 123°23'0 0.0
2016-Jul-17 14:33N 48°25' W 123°23'5 5.0
2016-Jul-17 13:33N 48°24' W 123°16'9 9.0
2016-Jul-17 12:33N 48°32' W 123°13'1010.1
2016-Jul-17 11:33N 48°42' W 123°16'10 8.2
2016-Jul-17 10:21N 48°52' W 123°21'7 7.6
2016-Jul-17 09:27N 48°58' W 123°18'7 7.9
2016-Jul-17 08:33N 49°05' W 123°19'9 8.9
2016-Jul-17 07:33N 49°07' W 123°06'8 8.1
2016-Jul-17 06:33N 49°11' W 122°55'0 0.0
2016-Jul-17 04:33N 49°11' W 122°55'0 0.0
2016-Jul-17 03:33N 49°11' W 122°55'0 0.0
2016-Jul-17 02:33N 49°11' W 122°55'0 0.0
2016-Jul-17 01:33N 49°11' W 122°55'0 0.0
2016-Jul-17 00:33N 49°11' W 122°55'0 0.0
2016-Jul-16 23:33N 49°11' W 122°55'0 0.0
2016-Jul-16 22:33N 49°11' W 122°55'0 0.0
2016-Jul-16 21:34N 49°11' W 122°55'0 0.0
2016-Jul-16 20:33N 49°11' W 122°55'0 0.0
2016-Jul-16 19:33N 49°11' W 122°55'0 0.0
2016-Jul-16 18:33N 49°11' W 122°55'0 0.0
2016-Jul-16 17:33N 49°11' W 122°55'0 0.0
2016-Jul-16 16:33N 49°11' W 122°55'0 0.0
2016-Jul-16 15:33N 49°11' W 122°55'0 0.0
2016-Jul-16 14:33N 49°11' W 122°55'0 0.0
2016-Jul-16 13:33N 49°11' W 122°55'0 0.0
2016-Jul-16 12:33N 49°11' W 122°55'0 0.0
2016-Jul-16 11:33N 49°11' W 122°55'0 0.0
2016-Jul-16 10:33N 49°11' W 122°55'0 0.0
2016-Jul-16 09:33N 49°11' W 122°55'0 0.0
2016-Jul-16 08:33N 49°11' W 122°55'0 0.0
2016-Jul-16 07:33N 49°11' W 122°55'0 0.0
2016-Jul-16 06:33N 49°11' W 122°55'0 0.0
2016-Jul-16 04:33N 49°11' W 122°55'0 0.0
2016-Jul-16 03:33N 49°11' W 122°55'0 0.0
2016-Jul-16 02:33N 49°11' W 122°55'0 0.0
2016-Jul-16 01:33N 49°11' W 122°55'0 0.0
2016-Jul-16 00:33N 49°11' W 122°55'0 0.0
2016-Jul-15 23:33N 49°11' W 122°55'3 3.1
2016-Jul-15 22:33N 49°10' W 122°60'0 0.1
2016-Jul-15 21:33N 49°10' W 122°60'0 0.0
2016-Jul-15 20:33N 49°10' W 122°60'0 0.0
2016-Jul-15 19:33N 49°10' W 122°60'0 0.0
2016-Jul-15 18:33N 49°10' W 122°60'0 0.0
2016-Jul-15 17:33N 49°10' W 122°60'0 0.0
2016-Jul-15 16:33N 49°10' W 122°60'0 0.0
2016-Jul-15 15:33N 49°10' W 122°60'0 0.0
2016-Jul-15 14:33N 49°10' W 122°60'0 0.0
2016-Jul-15 13:33N 49°10' W 122°60'0 0.0
2016-Jul-15 12:33N 49°10' W 122°60'0 0.0
2016-Jul-15 11:33N 49°10' W 122°60'0 0.0
2016-Jul-15 10:33N 49°10' W 122°60'0 0.0
2016-Jul-15 09:33N 49°10' W 122°60'0 0.0
2016-Jul-15 08:33N 49°10' W 122°60'0 0.0
2016-Jul-15 07:33N 49°10' W 122°60'0 0.0
2016-Jul-15 06:33N 49°10' W 122°60'0 0.0
2016-Jul-15 05:33N 49°10' W 122°60'0 0.0
2016-Jul-15 04:33N 49°10' W 122°60'0 0.0
2016-Jul-15 03:33N 49°10' W 122°60'0 0.0
2016-Jul-15 02:33N 49°10' W 122°60'0 0.0
2016-Jul-15 01:33N 49°10' W 122°60'0 0.0
2016-Jul-15 00:33N 49°10' W 122°60'0 0.0
2016-Jul-14 23:33N 49°10' W 122°60'0 0.0
2016-Jul-14 22:33N 49°10' W 122°60'0 0.0
2016-Jul-14 21:33N 49°10' W 122°60'0 0.0
2016-Jul-14 20:33N 49°10' W 122°60'0 0.0
2016-Jul-14 19:33N 49°10' W 122°60'0 0.0
2016-Jul-14 18:33N 49°10' W 122°60'0 0.0
2016-Jul-14 17:33N 49°10' W 122°60'0 0.0
2016-Jul-14 16:33N 49°10' W 122°60'0 0.0
2016-Jul-14 15:33N 49°10' W 122°60'0 0.0
2016-Jul-14 14:33N 49°10' W 122°60'0 0.0
2016-Jul-14 13:33N 49°10' W 122°60'0 0.0
2016-Jul-14 12:33N 49°10' W 122°60'0 0.0
2016-Jul-14 11:33N 49°10' W 122°60'0 0.0
2016-Jul-14 10:33N 49°10' W 122°60'0 0.0
2016-Jul-14 09:33N 49°10' W 122°60'0 0.0
2016-Jul-14 08:33N 49°10' W 122°60'0 0.0
2016-Jul-14 07:33N 49°10' W 122°60'0 0.0
2016-Jul-14 06:33N 49°10' W 122°60'0 0.0
2016-Jul-14 05:33N 49°10' W 122°60'0 0.0
2016-Jul-14 04:33N 49°10' W 122°60'0 0.0
2016-Jul-14 03:33N 49°10' W 122°60'0 0.0
2016-Jul-14 02:33N 49°10' W 122°60'0 0.0
2016-Jul-14 01:33N 49°10' W 122°60'0 0.0
2016-Jul-14 00:33N 49°10' W 122°60'0 0.0
2016-Jul-13 23:33N 49°10' W 122°60'0 0.0
2016-Jul-13 22:33N 49°10' W 122°60'0 0.0
2016-Jul-13 21:33N 49°10' W 122°60'0 0.0
2016-Jul-13 20:33N 49°10' W 122°60'0 0.0
2016-Jul-13 19:33N 49°10' W 122°60'0 0.0
2016-Jul-13 18:33N 49°10' W 122°60'0 0.0
2016-Jul-13 17:33N 49°10' W 122°60'0 0.0
2016-Jul-13 16:33N 49°10' W 122°60'0 0.0
2016-Jul-13 15:33N 49°10' W 122°60'0 0.0
2016-Jul-13 14:33N 49°10' W 122°60'0 0.0
2016-Jul-13 13:33N 49°10' W 122°60'0 0.0
2016-Jul-13 12:33N 49°10' W 122°60'0 0.0
2016-Jul-13 11:33N 49°10' W 122°60'0 0.0
2016-Jul-13 10:33N 49°10' W 122°60'0 0.0
2016-Jul-13 09:33N 49°10' W 122°60'0 0.0
2016-Jul-13 08:33N 49°10' W 122°60'0 0.0
2016-Jul-13 07:33N 49°10' W 122°60'0 0.0
2016-Jul-13 06:33N 49°10' W 122°60'0 0.0
2016-Jul-13 05:33N 49°10' W 122°60'0 0.0
2016-Jul-13 04:33N 49°10' W 122°60'0 0.0
2016-Jul-13 03:33N 49°10' W 122°60'0 0.0
2016-Jul-13 02:33N 49°10' W 122°60'0 0.0
2016-Jul-13 01:33N 49°10' W 122°60'0 0.0
2016-Jul-13 00:33N 49°10' W 122°60'0 0.0
2016-Jul-12 23:33N 49°10' W 122°60'0 0.0
2016-Jul-12 22:33N 49°10' W 122°60'0 0.0
2016-Jul-12 21:33N 49°10' W 122°60'0 0.0
2016-Jul-12 20:33N 49°10' W 122°60'0 0.0
2016-Jul-12 19:33N 49°10' W 122°60'0 0.0
2016-Jul-12 18:33N 49°10' W 122°60'0 0.0
2016-Jul-12 17:33N 49°10' W 122°60'0 0.0
2016-Jul-12 16:33N 49°10' W 122°60'0 0.0
2016-Jul-12 15:33N 49°10' W 122°60'0 0.0
2016-Jul-12 14:33N 49°10' W 122°60'0 0.0
2016-Jul-12 13:33N 49°10' W 122°60'0 0.0
2016-Jul-12 12:33N 49°10' W 122°60'0 0.0
2016-Jul-12 11:33N 49°10' W 122°60'0 0.0
2016-Jul-12 10:33N 49°10' W 122°60'0 0.0
2016-Jul-12 09:33N 49°10' W 122°60'0 0.0
2016-Jul-12 08:33N 49°10' W 122°60'0 0.0
2016-Jul-12 07:33N 49°10' W 122°60'0 0.0
2016-Jul-12 06:33N 49°10' W 122°60'0 0.0
2016-Jul-12 05:33N 49°10' W 122°60'0 0.0
2016-Jul-12 04:33N 49°10' W 122°60'0 0.0
2016-Jul-12 03:33N 49°10' W 122°60'0 0.0
2016-Jul-12 02:33N 49°10' W 122°60'0 0.0
2016-Jul-12 01:33N 49°10' W 122°60'0 0.0
2016-Jul-12 00:33N 49°10' W 122°60'0 0.0
2016-Jul-11 23:33N 49°10' W 122°60'0 0.0
2016-Jul-11 22:33N 49°10' W 122°60'0 0.0
2016-Jul-11 21:33N 49°10' W 122°60'0 0.0
2016-Jul-11 20:31N 49°10' W 122°60'0 0.0
2016-Jul-11 19:33N 49°10' W 122°60'0 0.0
2016-Jul-11 18:33N 49°10' W 122°60'0 0.0
2016-Jul-11 17:33N 49°10' W 122°60'0 0.0
2016-Jul-11 16:33N 49°10' W 122°60'0 0.0
2016-Jul-11 15:33N 49°10' W 122°60'0 0.0
2016-Jul-11 14:33N 49°10' W 122°60'0 0.0
2016-Jul-11 13:33N 49°10' W 122°60'0 0.0
2016-Jul-11 12:33N 49°10' W 122°60'0 0.0
2016-Jul-11 11:33N 49°10' W 122°60'0 0.0
2016-Jul-11 10:33N 49°10' W 122°60'0 0.0
2016-Jul-11 09:33N 49°10' W 122°60'0 0.0
2016-Jul-11 08:33N 49°10' W 122°60'0 0.0
2016-Jul-11 07:33N 49°10' W 122°60'0 0.0
2016-Jul-11 06:33N 49°10' W 122°60'0 0.0
2016-Jul-11 04:33N 49°10' W 122°60'0 0.0
2016-Jul-11 03:33N 49°10' W 122°60'0 0.0
2016-Jul-11 02:33N 49°10' W 122°60'0 0.0
2016-Jul-11 01:33N 49°10' W 122°60'0 0.0
2016-Jul-11 00:33N 49°10' W 122°60'0 0.0
2016-Jul-10 23:33N 49°10' W 122°60'0 0.0
2016-Jul-10 22:33N 49°10' W 122°60'0 0.0
2016-Jul-10 21:33N 49°10' W 122°60'0 0.0
2016-Jul-10 20:33N 49°10' W 122°60'0 0.0
2016-Jul-10 19:33N 49°10' W 122°60'0 0.0
2016-Jul-10 18:33N 49°10' W 122°60'0 0.0
2016-Jul-10 17:33N 49°10' W 122°60'0 0.0
2016-Jul-10 16:33N 49°10' W 122°60'0 0.0
2016-Jul-10 15:33N 49°10' W 122°60'0 0.0
2016-Jul-10 14:33N 49°10' W 122°60'0 0.0
2016-Jul-10 13:33N 49°10' W 122°60'0 0.0
2016-Jul-10 12:33N 49°10' W 122°60'0 0.0
2016-Jul-10 11:33N 49°10' W 122°60'0 0.0
2016-Jul-10 10:33N 49°10' W 122°60'0 0.0
2016-Jul-10 09:33N 49°10' W 122°60'0 0.0
2016-Jul-10 08:33N 49°10' W 122°60'0 0.0
2016-Jul-10 07:33N 49°10' W 122°60'0 0.0
2016-Jul-10 06:33N 49°10' W 122°60'0 0.0
2016-Jul-10 05:33N 49°10' W 122°60'0 0.0
2016-Jul-10 04:33N 49°10' W 122°60'0 0.0
2016-Jul-10 03:33N 49°10' W 122°60'0 0.0
2016-Jul-10 02:33N 49°10' W 122°60'0 0.0
2016-Jul-10 01:33N 49°10' W 122°60'0 0.0
2016-Jul-10 00:33N 49°10' W 122°60'0 0.0
2016-Jul-09 23:33N 49°10' W 122°60'0 0.0
2016-Jul-09 22:33N 49°10' W 122°60'0 0.0
2016-Jul-09 21:33N 49°10' W 122°60'0 0.0
2016-Jul-09 20:33N 49°10' W 122°60'0 0.0
2016-Jul-09 19:33N 49°10' W 122°60'0 0.0
2016-Jul-09 18:33N 49°10' W 122°60'0 0.0
2016-Jul-09 17:33N 49°10' W 122°60'0 0.0
2016-Jul-09 16:33N 49°10' W 122°60'0 0.0
2016-Jul-09 15:33N 49°10' W 122°60'0 0.0
2016-Jul-09 14:33N 49°10' W 122°60'0 0.0
2016-Jul-09 13:33N 49°10' W 122°60'0 0.0
2016-Jul-09 12:33N 49°10' W 122°60'0 0.0
2016-Jul-09 11:33N 49°10' W 122°60'0 0.0
2016-Jul-09 10:33N 49°10' W 122°60'0 0.0
2016-Jul-09 09:33N 49°10' W 122°60'0 0.0
2016-Jul-09 08:33N 49°10' W 122°60'0 0.0
2016-Jul-09 07:33N 49°10' W 122°60'0 0.0
2016-Jul-09 06:33N 49°10' W 122°60'0 0.0
2016-Jul-09 04:33N 49°10' W 122°60'0 0.0
2016-Jul-09 03:33N 49°10' W 122°60'0 0.0
2016-Jul-09 02:33N 49°10' W 122°60'0 0.0
2016-Jul-09 01:33N 49°10' W 122°60'0 0.0
2016-Jul-09 00:33N 49°10' W 122°60'0 0.0
2016-Jul-08 23:33N 49°10' W 122°60'0 0.0
2016-Jul-08 22:33N 49°10' W 122°60'0 0.0
2016-Jul-08 21:21N 49°10' W 122°60'0 0.0
2016-Jul-08 20:33N 49°10' W 122°60'0 0.0
2016-Jul-08 19:33N 49°10' W 122°60'0 0.0
2016-Jul-08 18:33N 49°10' W 122°60'0 0.0
2016-Jul-08 17:33N 49°10' W 122°60'0 0.0
2016-Jul-08 16:33N 49°10' W 122°60'  
Track history (hours):
 
Tides and Currents Weather Stations Pressure Air Temp Water Temp Dewpoint Dewpoint Depression Visibility Wind Speed Wind Dir Waves Ship Positions

La Porsche

Last reported at 2016-Jul-18 16:04 UTC. Time now 2016-Jul-27 03:47 UTC.
Position N 48°32' W 125°03'.
Warning: this ship's position is 8 days out of date.

Length 22 m; draft 3 m.

Type: Fishing. MMSI: 316001649.

Date/timePositionNaut miles runAvg speedWind from/ knotsBaromVisibWave heightAir tempDewpointWater temp
2016-Jul-18 16:04N 48°32' W 125°03'4 8.0
2016-Jul-18 15:33N 48°33' W 124°57'9 8.9
2016-Jul-18 14:33N 48°31' W 124°43'10 9.6
2016-Jul-18 13:33N 48°29' W 124°29'9 9.3
2016-Jul-18 12:33N 48°26' W 124°16'9 8.8
2016-Jul-18 11:33N 48°22' W 124°04'9 8.3
2016-Jul-18 10:31N 48°19' W 123°52'15 6.5
2016-Jul-18 08:14N 48°17' W 123°30'4 5.8
2016-Jul-18 07:33N 48°21' W 123°28'6 6.0
2016-Jul-18 06:34N 48°25' W 123°23'0 0.1
2016-Jul-18 05:33N 48°25' W 123°23'0 0.0
2016-Jul-18 04:31N 48°25' W 123°23'0 0.0
2016-Jul-18 03:20N 48°25' W 123°23'0 0.0
2016-Jul-18 02:33N 48°25' W 123°23'0 0.0
2016-Jul-18 01:34N 48°25' W 123°23'0 0.0
2016-Jul-18 00:34N 48°25' W 123°23'0 0.0
2016-Jul-17 23:34N 48°25' W 123°23'0 0.0
2016-Jul-17 22:34N 48°25' W 123°23'0 0.0
2016-Jul-17 21:33N 48°25' W 123°23'0 0.0
2016-Jul-17 20:33N 48°25' W 123°23'0 0.0
2016-Jul-17 19:33N 48°25' W 123°23'0 0.0
2016-Jul-17 18:33N 48°25' W 123°23'0 0.0
2016-Jul-17 17:33N 48°25' W 123°23'0 0.0
2016-Jul-17 16:33N 48°25' W 123°23'0 0.0
2016-Jul-17 15:32N 48°25' W 123°23'0 0.0
2016-Jul-17 14:33N 48°25' W 123°23'5 5.0
2016-Jul-17 13:33N 48°24' W 123°16'9 9.0
2016-Jul-17 12:33N 48°32' W 123°13'1010.1
2016-Jul-17 11:33N 48°42' W 123°16'10 8.2
2016-Jul-17 10:21N 48°52' W 123°21'7 7.6
2016-Jul-17 09:27N 48°58' W 123°18'7 7.9
2016-Jul-17 08:33N 49°05' W 123°19'9 8.9
2016-Jul-17 07:33N 49°07' W 123°06'8 8.1
2016-Jul-17 06:33N 49°11' W 122°55'0 0.0
2016-Jul-17 04:33N 49°11' W 122°55'0 0.0
2016-Jul-17 03:33N 49°11' W 122°55'0 0.0
2016-Jul-17 02:33N 49°11' W 122°55'0 0.0
2016-Jul-17 01:33N 49°11' W 122°55'0 0.0
2016-Jul-17 00:33N 49°11' W 122°55'0 0.0
2016-Jul-16 23:33N 49°11' W 122°55'0 0.0
2016-Jul-16 22:33N 49°11' W 122°55'0 0.0
2016-Jul-16 21:34N 49°11' W 122°55'0 0.0
2016-Jul-16 20:33N 49°11' W 122°55'0 0.0
2016-Jul-16 19:33N 49°11' W 122°55'0 0.0
2016-Jul-16 18:33N 49°11' W 122°55'0 0.0
2016-Jul-16 17:33N 49°11' W 122°55'0 0.0
2016-Jul-16 16:33N 49°11' W 122°55'0 0.0
2016-Jul-16 15:33N 49°11' W 122°55'0 0.0
2016-Jul-16 14:33N 49°11' W 122°55'0 0.0
2016-Jul-16 13:33N 49°11' W 122°55'0 0.0
2016-Jul-16 12:33N 49°11' W 122°55'0 0.0
2016-Jul-16 11:33N 49°11' W 122°55'0 0.0
2016-Jul-16 10:33N 49°11' W 122°55'0 0.0
2016-Jul-16 09:33N 49°11' W 122°55'0 0.0
2016-Jul-16 08:33N 49°11' W 122°55'0 0.0
2016-Jul-16 07:33N 49°11' W 122°55'0 0.0
2016-Jul-16 06:33N 49°11' W 122°55'0 0.0
2016-Jul-16 04:33N 49°11' W 122°55'0 0.0
2016-Jul-16 03:33N 49°11' W 122°55'0 0.0
2016-Jul-16 02:33N 49°11' W 122°55'0 0.0
2016-Jul-16 01:33N 49°11' W 122°55'0 0.0
2016-Jul-16 00:33N 49°11' W 122°55'0 0.0
2016-Jul-15 23:33N 49°11' W 122°55'3 3.1
2016-Jul-15 22:33N 49°10' W 122°60'0 0.1
2016-Jul-15 21:33N 49°10' W 122°60'0 0.0
2016-Jul-15 20:33N 49°10' W 122°60'0 0.0
2016-Jul-15 19:33N 49°10' W 122°60'0 0.0
2016-Jul-15 18:33N 49°10' W 122°60'0 0.0
2016-Jul-15 17:33N 49°10' W 122°60'0 0.0
2016-Jul-15 16:33N 49°10' W 122°60'0 0.0
2016-Jul-15 15:33N 49°10' W 122°60'0 0.0
2016-Jul-15 14:33N 49°10' W 122°60'0 0.0
2016-Jul-15 13:33N 49°10' W 122°60'0 0.0
2016-Jul-15 12:33N 49°10' W 122°60'0 0.0
2016-Jul-15 11:33N 49°10' W 122°60'0 0.0
2016-Jul-15 10:33N 49°10' W 122°60'0 0.0
2016-Jul-15 09:33N 49°10' W 122°60'0 0.0
2016-Jul-15 08:33N 49°10' W 122°60'0 0.0
2016-Jul-15 07:33N 49°10' W 122°60'0 0.0
2016-Jul-15 06:33N 49°10' W 122°60'0 0.0
2016-Jul-15 05:33N 49°10' W 122°60'0 0.0
2016-Jul-15 04:33N 49°10' W 122°60'0 0.0
2016-Jul-15 03:33N 49°10' W 122°60'0 0.0
2016-Jul-15 02:33N 49°10' W 122°60'0 0.0
2016-Jul-15 01:33N 49°10' W 122°60'0 0.0
2016-Jul-15 00:33N 49°10' W 122°60'0 0.0
2016-Jul-14 23:33N 49°10' W 122°60'0 0.0
2016-Jul-14 22:33N 49°10' W 122°60'0 0.0
2016-Jul-14 21:33N 49°10' W 122°60'0 0.0
2016-Jul-14 20:33N 49°10' W 122°60'0 0.0
2016-Jul-14 19:33N 49°10' W 122°60'0 0.0
2016-Jul-14 18:33N 49°10' W 122°60'0 0.0
2016-Jul-14 17:33N 49°10' W 122°60'0 0.0
2016-Jul-14 16:33N 49°10' W 122°60'0 0.0
2016-Jul-14 15:33N 49°10' W 122°60'0 0.0
2016-Jul-14 14:33N 49°10' W 122°60'0 0.0
2016-Jul-14 13:33N 49°10' W 122°60'0 0.0
2016-Jul-14 12:33N 49°10' W 122°60'0 0.0
2016-Jul-14 11:33N 49°10' W 122°60'0 0.0
2016-Jul-14 10:33N 49°10' W 122°60'0 0.0
2016-Jul-14 09:33N 49°10' W 122°60'0 0.0
2016-Jul-14 08:33N 49°10' W 122°60'0 0.0
2016-Jul-14 07:33N 49°10' W 122°60'0 0.0
2016-Jul-14 06:33N 49°10' W 122°60'0 0.0
2016-Jul-14 05:33N 49°10' W 122°60'0 0.0
2016-Jul-14 04:33N 49°10' W 122°60'0 0.0
2016-Jul-14 03:33N 49°10' W 122°60'0 0.0
2016-Jul-14 02:33N 49°10' W 122°60'0 0.0
2016-Jul-14 01:33N 49°10' W 122°60'0 0.0
2016-Jul-14 00:33N 49°10' W 122°60'0 0.0
2016-Jul-13 23:33N 49°10' W 122°60'0 0.0
2016-Jul-13 22:33N 49°10' W 122°60'0 0.0
2016-Jul-13 21:33N 49°10' W 122°60'0 0.0
2016-Jul-13 20:33N 49°10' W 122°60'0 0.0
2016-Jul-13 19:33N 49°10' W 122°60'0 0.0
2016-Jul-13 18:33N 49°10' W 122°60'0 0.0
2016-Jul-13 17:33N 49°10' W 122°60'0 0.0
2016-Jul-13 16:33N 49°10' W 122°60'0 0.0
2016-Jul-13 15:33N 49°10' W 122°60'0 0.0
2016-Jul-13 14:33N 49°10' W 122°60'0 0.0
2016-Jul-13 13:33N 49°10' W 122°60'0 0.0
2016-Jul-13 12:33N 49°10' W 122°60'0 0.0
2016-Jul-13 11:33N 49°10' W 122°60'0 0.0
2016-Jul-13 10:33N 49°10' W 122°60'0 0.0
2016-Jul-13 09:33N 49°10' W 122°60'0 0.0
2016-Jul-13 08:33N 49°10' W 122°60'0 0.0
2016-Jul-13 07:33N 49°10' W 122°60'0 0.0
2016-Jul-13 06:33N 49°10' W 122°60'0 0.0
2016-Jul-13 05:33N 49°10' W 122°60'0 0.0
2016-Jul-13 04:33N 49°10' W 122°60'0 0.0
2016-Jul-13 03:33N 49°10' W 122°60'0 0.0
2016-Jul-13 02:33N 49°10' W 122°60'0 0.0
2016-Jul-13 01:33N 49°10' W 122°60'0 0.0
2016-Jul-13 00:33N 49°10' W 122°60'0 0.0
2016-Jul-12 23:33N 49°10' W 122°60'0 0.0
2016-Jul-12 22:33N 49°10' W 122°60'0 0.0
2016-Jul-12 21:33N 49°10' W 122°60'0 0.0
2016-Jul-12 20:33N 49°10' W 122°60'0 0.0
2016-Jul-12 19:33N 49°10' W 122°60'0 0.0
2016-Jul-12 18:33N 49°10' W 122°60'0 0.0
2016-Jul-12 17:33N 49°10' W 122°60'0 0.0
2016-Jul-12 16:33N 49°10' W 122°60'0 0.0
2016-Jul-12 15:33N 49°10' W 122°60'0 0.0
2016-Jul-12 14:33N 49°10' W 122°60'0 0.0
2016-Jul-12 13:33N 49°10' W 122°60'0 0.0
2016-Jul-12 12:33N 49°10' W 122°60'0 0.0
2016-Jul-12 11:33N 49°10' W 122°60'0 0.0
2016-Jul-12 10:33N 49°10' W 122°60'0 0.0
2016-Jul-12 09:33N 49°10' W 122°60'0 0.0
2016-Jul-12 08:33N 49°10' W 122°60'0 0.0
2016-Jul-12 07:33N 49°10' W 122°60'0 0.0
2016-Jul-12 06:33N 49°10' W 122°60'0 0.0
2016-Jul-12 05:33N 49°10' W 122°60'0 0.0
2016-Jul-12 04:33N 49°10' W 122°60'0 0.0
2016-Jul-12 03:33N 49°10' W 122°60'0 0.0
2016-Jul-12 02:33N 49°10' W 122°60'0 0.0
2016-Jul-12 01:33N 49°10' W 122°60'0 0.0
2016-Jul-12 00:33N 49°10' W 122°60'0 0.0
2016-Jul-11 23:33N 49°10' W 122°60'0 0.0
2016-Jul-11 22:33N 49°10' W 122°60'0 0.0
2016-Jul-11 21:33N 49°10' W 122°60'0 0.0
2016-Jul-11 20:31N 49°10' W 122°60'0 0.0
2016-Jul-11 19:33N 49°10' W 122°60'0 0.0
2016-Jul-11 18:33N 49°10' W 122°60'0 0.0
2016-Jul-11 17:33N 49°10' W 122°60'0 0.0
2016-Jul-11 16:33N 49°10' W 122°60'0 0.0
2016-Jul-11 15:33N 49°10' W 122°60'0 0.0
2016-Jul-11 14:33N 49°10' W 122°60'0 0.0
2016-Jul-11 13:33N 49°10' W 122°60'0 0.0
2016-Jul-11 12:33N 49°10' W 122°60'0 0.0
2016-Jul-11 11:33N 49°10' W 122°60'0 0.0
2016-Jul-11 10:33N 49°10' W 122°60'0 0.0
2016-Jul-11 09:33N 49°10' W 122°60'0 0.0
2016-Jul-11 08:33N 49°10' W 122°60'0 0.0
2016-Jul-11 07:33N 49°10' W 122°60'0 0.0
2016-Jul-11 06:33N 49°10' W 122°60'0 0.0
2016-Jul-11 04:33N 49°10' W 122°60'0 0.0
2016-Jul-11 03:33N 49°10' W 122°60'0 0.0
2016-Jul-11 02:33N 49°10' W 122°60'0 0.0
2016-Jul-11 01:33N 49°10' W 122°60'0 0.0
2016-Jul-11 00:33N 49°10' W 122°60'0 0.0
2016-Jul-10 23:33N 49°10' W 122°60'0 0.0
2016-Jul-10 22:33N 49°10' W 122°60'0 0.0
2016-Jul-10 21:33N 49°10' W 122°60'0 0.0
2016-Jul-10 20:33N 49°10' W 122°60'0 0.0
2016-Jul-10 19:33N 49°10' W 122°60'0 0.0
2016-Jul-10 18:33N 49°10' W 122°60'0 0.0
2016-Jul-10 17:33N 49°10' W 122°60'0 0.0
2016-Jul-10 16:33N 49°10' W 122°60'0 0.0
2016-Jul-10 15:33N 49°10' W 122°60'0 0.0
2016-Jul-10 14:33N 49°10' W 122°60'0 0.0
2016-Jul-10 13:33N 49°10' W 122°60'0 0.0
2016-Jul-10 12:33N 49°10' W 122°60'0 0.0
2016-Jul-10 11:33N 49°10' W 122°60'0 0.0
2016-Jul-10 10:33N 49°10' W 122°60'0 0.0
2016-Jul-10 09:33N 49°10' W 122°60'0 0.0
2016-Jul-10 08:33N 49°10' W 122°60'0 0.0
2016-Jul-10 07:33N 49°10' W 122°60'0 0.0
2016-Jul-10 06:33N 49°10' W 122°60'0 0.0
2016-Jul-10 05:33N 49°10' W 122°60'0 0.0
2016-Jul-10 04:33N 49°10' W 122°60'0 0.0
2016-Jul-10 03:33N 49°10' W 122°60'0 0.0
2016-Jul-10 02:33N 49°10' W 122°60'0 0.0
2016-Jul-10 01:33N 49°10' W 122°60'0 0.0
2016-Jul-10 00:33N 49°10' W 122°60'0 0.0
2016-Jul-09 23:33N 49°10' W 122°60'0 0.0
2016-Jul-09 22:33N 49°10' W 122°60'0 0.0
2016-Jul-09 21:33N 49°10' W 122°60'0 0.0
2016-Jul-09 20:33N 49°10' W 122°60'0 0.0
2016-Jul-09 19:33N 49°10' W 122°60'0 0.0
2016-Jul-09 18:33N 49°10' W 122°60'0 0.0
2016-Jul-09 17:33N 49°10' W 122°60'0 0.0
2016-Jul-09 16:33N 49°10' W 122°60'0 0.0
2016-Jul-09 15:33N 49°10' W 122°60'0 0.0
2016-Jul-09 14:33N 49°10' W 122°60'0 0.0
2016-Jul-09 13:33N 49°10' W 122°60'0 0.0
2016-Jul-09 12:33N 49°10' W 122°60'0 0.0
2016-Jul-09 11:33N 49°10' W 122°60'0 0.0
2016-Jul-09 10:33N 49°10' W 122°60'0 0.0
2016-Jul-09 09:33N 49°10' W 122°60'0 0.0
2016-Jul-09 08:33N 49°10' W 122°60'0 0.0
2016-Jul-09 07:33N 49°10' W 122°60'0 0.0
2016-Jul-09 06:33N 49°10' W 122°60'0 0.0
2016-Jul-09 04:33N 49°10' W 122°60'0 0.0
2016-Jul-09 03:33N 49°10' W 122°60'0 0.0
2016-Jul-09 02:33N 49°10' W 122°60'0 0.0
2016-Jul-09 01:33N 49°10' W 122°60'0 0.0
2016-Jul-09 00:33N 49°10' W 122°60'0 0.0
2016-Jul-08 23:33N 49°10' W 122°60'0 0.0
2016-Jul-08 22:33N 49°10' W 122°60'0 0.0
2016-Jul-08 21:21N 49°10' W 122°60'0 0.0
2016-Jul-08 20:33N 49°10' W 122°60'0 0.0
2016-Jul-08 19:33N 49°10' W 122°60'0 0.0
2016-Jul-08 18:33N 49°10' W 122°60'0 0.0
2016-Jul-08 17:33N 49°10' W 122°60'0 0.0
2016-Jul-08 16:33N 49°10' W 122°60'  

Dump ship's entire track history